createdAt,value
2022-10-22T00:01:36.667Z,40.60
2022-10-22T00:04:03.154Z,39.47
2022-10-22T00:06:29.636Z,43.63
2022-10-22T00:08:56.175Z,39.17
2022-10-22T00:11:22.677Z,41.77
2022-10-22T00:13:49.309Z,39.53
2022-10-22T00:16:15.924Z,41.40
2022-10-22T00:18:42.429Z,44.03
2022-10-22T00:21:09.393Z,36.40
2022-10-22T00:23:35.820Z,40.47
2022-10-22T00:26:02.327Z,41.30
2022-10-22T00:28:28.791Z,42.03
2022-10-22T00:30:56.941Z,41.53
2022-10-22T00:33:23.620Z,41.83
2022-10-22T00:35:50.092Z,39.83
2022-10-22T00:38:16.580Z,43.43
2022-10-22T00:40:43.007Z,40.00
2022-10-22T00:43:13.924Z,36.83
2022-10-22T00:45:40.844Z,40.93
2022-10-22T00:48:08.555Z,45.67
2022-10-22T00:50:40.674Z,40.20
2022-10-22T00:53:13.744Z,41.43
2022-10-22T00:55:41.910Z,38.90
2022-10-22T00:58:08.515Z,40.70
2022-10-22T01:00:35.355Z,39.73
2022-10-22T01:03:01.879Z,39.83
2022-10-22T01:05:29.966Z,37.93
2022-10-22T01:07:56.484Z,37.53
2022-10-22T01:10:55.369Z,41.37
2022-10-22T01:13:48.689Z,39.53
2022-10-22T01:16:22.671Z,37.83
2022-10-22T01:19:05.811Z,36.83
2022-10-22T01:21:41.997Z,38.70
2022-10-22T01:24:20.463Z,39.13
2022-10-22T01:26:59.835Z,40.93
2022-10-22T01:29:48.733Z,39.30
2022-10-22T01:32:22.580Z,35.03
2022-10-22T01:34:52.600Z,36.77
2022-10-22T01:37:21.288Z,35.87
2022-10-22T01:39:48.279Z,37.60
2022-10-22T01:42:15.198Z,37.23
2022-10-22T01:44:42.086Z,43.30
2022-10-22T01:47:41.180Z,39.53
2022-10-22T01:50:24.354Z,39.90
2022-10-22T01:53:00.121Z,39.60
2022-10-22T01:55:32.190Z,44.67
2022-10-22T01:58:33.867Z,38.63
2022-10-22T02:01:08.796Z,39.13
2022-10-22T02:03:46.468Z,40.43
2022-10-22T02:06:18.931Z,43.63
2022-10-22T02:08:46.267Z,44.63
2022-10-22T02:11:14.258Z,36.83
2022-10-22T02:13:44.220Z,40.07
2022-10-22T02:16:13.914Z,40.83
2022-10-22T02:18:43.092Z,43.30
2022-10-22T02:21:09.892Z,40.67
2022-10-22T02:23:36.670Z,45.43
2022-10-22T02:26:20.529Z,41.03
2022-10-22T02:28:59.801Z,38.10
2022-10-22T02:31:29.161Z,39.10
2022-10-22T02:33:57.413Z,39.10
2022-10-22T02:36:24.420Z,38.47
2022-10-22T02:38:51.784Z,42.00
2022-10-22T02:41:18.583Z,39.37
2022-10-22T02:43:50.040Z,45.13
2022-10-22T02:46:16.663Z,43.87
2022-10-22T02:48:43.110Z,41.73
2022-10-22T02:51:09.577Z,41.47
2022-10-22T02:53:36.319Z,40.77
2022-10-22T02:56:02.829Z,41.90
2022-10-22T02:58:29.341Z,46.30
2022-10-22T03:00:56.044Z,46.07
2022-10-22T03:03:22.530Z,41.47
2022-10-22T03:05:51.108Z,43.43
2022-10-22T03:08:17.976Z,43.07
2022-10-22T03:10:44.519Z,50.33
2022-10-22T03:13:11.024Z,47.83
2022-10-22T03:15:37.603Z,45.43
2022-10-22T03:18:04.151Z,45.30
2022-10-22T03:20:30.947Z,40.73
2022-10-22T03:22:58.041Z,45.40
2022-10-22T03:25:25.814Z,45.67
2022-10-22T03:27:54.153Z,40.00
2022-10-22T03:30:21.056Z,46.67
2022-10-22T03:32:47.828Z,41.53
2022-10-22T03:35:14.442Z,44.80
2022-10-22T03:37:41.505Z,46.57
2022-10-22T03:40:09.481Z,46.07
2022-10-22T03:42:36.121Z,41.90
2022-10-22T03:45:02.629Z,46.63
2022-10-22T03:47:29.182Z,45.27
2022-10-22T03:49:55.695Z,44.40
2022-10-22T03:52:22.265Z,44.07
2022-10-22T03:54:48.809Z,44.60
2022-10-22T03:57:15.603Z,43.47
2022-10-22T03:59:44.430Z,42.83
2022-10-22T04:02:11.471Z,40.37
2022-10-22T04:04:38.113Z,45.63
2022-10-22T04:07:06.352Z,46.63
2022-10-22T04:09:33.421Z,44.07
2022-10-22T04:12:00.812Z,47.90
2022-10-22T04:14:27.274Z,45.10
2022-10-22T04:16:54.900Z,45.73
2022-10-22T04:19:21.447Z,46.93
2022-10-22T04:21:47.878Z,46.23
2022-10-22T04:24:14.475Z,46.83
2022-10-22T04:26:41.099Z,42.10
2022-10-22T04:29:11.775Z,46.43
2022-10-22T04:31:41.794Z,46.13
2022-10-22T04:34:08.401Z,44.57
2022-10-22T04:36:34.842Z,45.63
2022-10-22T04:39:01.979Z,45.00
2022-10-22T04:41:31.133Z,48.33
2022-10-22T04:43:58.586Z,48.90
2022-10-22T04:46:28.543Z,45.30
2022-10-22T04:48:55.032Z,47.50
2022-10-22T04:51:23.075Z,41.77
2022-10-22T04:53:49.972Z,52.63
2022-10-22T04:56:21.829Z,49.27
2022-10-22T04:58:55.896Z,51.47
2022-10-22T05:01:25.151Z,48.40
2022-10-22T05:03:53.016Z,53.47
2022-10-22T05:06:20.922Z,49.93
2022-10-22T05:08:48.336Z,44.70
2022-10-22T05:11:19.879Z,48.53
2022-10-22T05:13:46.749Z,53.10
2022-10-22T05:16:13.640Z,49.73
2022-10-22T05:18:42.080Z,56.63
2022-10-22T05:21:10.636Z,52.27
2022-10-22T05:23:37.278Z,51.40
2022-10-22T05:26:05.174Z,52.80
2022-10-22T05:28:32.311Z,53.17
2022-10-22T05:30:59.725Z,51.07
2022-10-22T05:33:28.020Z,57.00
2022-10-22T05:35:54.684Z,53.97
2022-10-22T05:38:21.524Z,50.07
2022-10-22T05:40:48.482Z,51.00
2022-10-22T05:43:14.909Z,53.23
2022-10-22T05:45:42.411Z,49.80
2022-10-22T05:48:09.800Z,50.83
2022-10-22T05:50:37.614Z,48.60
2022-10-22T05:53:07.428Z,54.17
2022-10-22T05:55:37.246Z,53.60
2022-10-22T05:58:04.609Z,48.83
2022-10-22T06:00:31.903Z,48.30
2022-10-22T06:02:58.772Z,48.23
2022-10-22T06:05:25.243Z,51.17
2022-10-22T06:07:51.905Z,54.47
2022-10-22T06:10:19.995Z,48.73
2022-10-22T06:12:47.253Z,50.13
2022-10-22T06:15:15.751Z,55.23
2022-10-22T06:17:44.508Z,46.43
2022-10-22T06:20:12.419Z,42.13
2022-10-22T06:22:39.291Z,46.40
2022-10-22T06:25:08.147Z,44.37
2022-10-22T06:27:34.944Z,39.50
2022-10-22T06:30:01.468Z,47.43
2022-10-22T06:32:27.979Z,47.93
2022-10-22T06:34:54.440Z,40.73
2022-10-22T06:37:20.995Z,42.23
2022-10-22T06:39:47.412Z,42.00
2022-10-22T06:42:13.862Z,45.73
2022-10-22T06:44:40.418Z,41.97
2022-10-22T06:47:07.018Z,47.60
2022-10-22T06:49:33.629Z,39.87
2022-10-22T06:52:00.097Z,46.57
2022-10-22T06:54:26.626Z,43.63
2022-10-22T06:56:53.184Z,40.70
2022-10-22T06:59:19.645Z,40.47
2022-10-22T07:01:46.460Z,38.00
2022-10-22T07:04:13.443Z,37.67
2022-10-22T07:06:39.884Z,39.23
2022-10-22T07:09:06.808Z,38.60
2022-10-22T07:11:40.650Z,40.37
2022-10-22T07:14:07.703Z,36.03
2022-10-22T07:16:34.210Z,39.27
2022-10-22T07:19:01.736Z,45.07
2022-10-22T07:21:28.633Z,46.30
2022-10-22T07:23:55.146Z,42.07
2022-10-22T07:26:21.877Z,52.57
2022-10-22T07:28:48.669Z,61.63
2022-10-22T07:31:16.062Z,59.70
2022-10-22T07:33:42.524Z,52.30
2022-10-22T07:36:11.507Z,53.63
2022-10-22T07:38:37.969Z,50.20
2022-10-22T07:41:04.679Z,50.43
2022-10-22T07:43:31.605Z,45.93
2022-10-22T07:45:59.621Z,46.63
2022-10-22T07:48:26.132Z,50.37
2022-10-22T07:50:52.658Z,49.27
2022-10-22T07:53:19.314Z,44.80
2022-10-22T07:55:49.129Z,52.43
2022-10-22T07:58:16.412Z,47.13
2022-10-22T08:00:42.963Z,55.13
2022-10-22T08:03:12.806Z,46.77
2022-10-22T08:05:39.417Z,43.97
2022-10-22T08:08:06.941Z,43.67
2022-10-22T08:10:33.750Z,50.90
2022-10-22T08:13:00.272Z,53.93
2022-10-22T08:15:27.276Z,42.43
2022-10-22T08:17:54.016Z,43.23
2022-10-22T08:20:20.674Z,41.13
2022-10-22T08:22:47.220Z,39.60
2022-10-22T08:25:15.439Z,41.93
2022-10-22T08:27:42.391Z,49.20
2022-10-22T08:30:09.779Z,45.70
2022-10-22T08:32:36.218Z,44.63
2022-10-22T08:35:02.645Z,41.77
2022-10-22T08:37:29.107Z,40.43
2022-10-22T08:39:55.614Z,40.17
2022-10-22T08:42:50.843Z,41.57
2022-10-22T08:45:26.727Z,38.97
2022-10-22T08:48:05.236Z,42.23
2022-10-22T08:50:44.130Z,44.47
2022-10-22T08:53:16.746Z,51.13
2022-10-22T08:55:44.156Z,44.83
2022-10-22T08:58:31.345Z,43.87
2022-10-22T09:01:03.855Z,42.93
2022-10-22T09:03:38.244Z,46.03
2022-10-22T09:06:15.287Z,48.40
2022-10-22T09:08:43.562Z,44.20
2022-10-22T09:11:12.655Z,40.77
2022-10-22T09:13:41.757Z,42.00
2022-10-22T09:16:19.262Z,44.50
2022-10-22T09:18:52.212Z,42.60
2022-10-22T09:21:52.880Z,52.33
2022-10-22T09:24:33.240Z,58.33
2022-10-22T09:27:01.533Z,53.23
2022-10-22T09:29:32.997Z,61.50
2022-10-22T09:31:59.583Z,63.00
2022-10-22T09:34:26.299Z,56.27
2022-10-22T09:37:07.024Z,60.80
2022-10-22T09:39:35.338Z,58.97
2022-10-22T09:42:01.970Z,58.27
2022-10-22T09:44:28.467Z,58.63
2022-10-22T09:46:54.946Z,59.90
2022-10-22T09:49:23.212Z,54.27
2022-10-22T09:51:56.631Z,68.07
2022-10-22T09:54:25.951Z,59.50
2022-10-22T09:57:17.586Z,62.90
2022-10-22T09:59:48.723Z,56.70
2022-10-22T10:02:37.390Z,55.87
2022-10-22T10:05:06.080Z,62.40
2022-10-22T10:07:33.573Z,58.07
2022-10-22T10:10:00.167Z,51.17
2022-10-22T10:12:52.742Z,53.90
2022-10-22T10:15:54.802Z,65.83
2022-10-22T10:18:44.055Z,54.67
2022-10-22T10:21:25.523Z,55.17
2022-10-22T10:24:21.305Z,54.80
2022-10-22T10:27:09.838Z,51.87
2022-10-22T10:29:47.235Z,58.83
2022-10-22T10:32:48.309Z,54.60
2022-10-22T10:35:28.609Z,54.20
2022-10-22T10:38:33.136Z,56.07
2022-10-22T10:41:09.010Z,56.97
2022-10-22T10:43:51.331Z,58.97
2022-10-22T10:46:32.194Z,57.53
2022-10-22T10:49:11.393Z,57.23
2022-10-22T10:51:50.309Z,59.00
2022-10-22T10:54:21.790Z,55.97
2022-10-22T10:56:53.397Z,66.97
2022-10-22T10:59:38.630Z,61.20
2022-10-22T11:02:30.334Z,62.10
2022-10-22T11:05:15.115Z,65.87
2022-10-22T11:08:19.375Z,64.47
2022-10-22T11:10:56.339Z,70.70
2022-10-22T11:13:43.929Z,68.23
2022-10-22T11:16:27.299Z,68.07
2022-10-22T11:19:03.473Z,69.90
2022-10-22T11:21:34.628Z,67.33
2022-10-22T11:24:14.973Z,76.67
2022-10-22T11:26:50.276Z,74.27
2022-10-22T11:29:30.739Z,75.13
2022-10-22T11:31:59.672Z,86.30
2022-10-22T11:34:41.982Z,91.03
2022-10-22T11:37:11.080Z,86.13
2022-10-22T11:39:57.324Z,79.60
2022-10-22T11:42:43.287Z,82.77
2022-10-22T11:45:15.581Z,74.47
2022-10-22T11:48:15.242Z,76.97
2022-10-22T11:50:42.624Z,70.90
2022-10-22T11:53:14.940Z,80.97
2022-10-22T11:55:45.902Z,71.93
2022-10-22T11:58:35.642Z,76.43
2022-10-22T12:01:02.114Z,73.70
2022-10-22T12:03:28.601Z,75.43
2022-10-22T12:06:11.964Z,72.93
2022-10-22T12:08:50.617Z,74.77
2022-10-22T12:11:21.508Z,72.70
2022-10-22T12:14:00.249Z,76.67
2022-10-22T12:16:37.788Z,69.03
2022-10-22T12:19:28.247Z,80.50
2022-10-22T12:21:58.864Z,69.67
2022-10-22T12:24:29.661Z,63.07
2022-10-22T12:26:56.248Z,66.63
2022-10-22T12:29:23.914Z,65.97
2022-10-22T12:31:50.564Z,66.47
2022-10-22T12:34:19.307Z,63.00
2022-10-22T12:36:47.835Z,64.57
2022-10-22T12:39:20.293Z,63.93
2022-10-22T12:41:47.071Z,61.00
2022-10-22T12:44:15.864Z,62.03
2022-10-22T12:46:43.806Z,59.53
2022-10-22T12:49:21.882Z,60.03
2022-10-22T12:51:49.286Z,54.67
2022-10-22T12:54:26.913Z,58.57
2022-10-22T12:56:54.431Z,57.67
2022-10-22T12:59:24.200Z,55.30
2022-10-22T13:01:51.612Z,61.57
2022-10-22T13:04:28.368Z,54.40
2022-10-22T13:07:19.796Z,46.80
2022-10-22T13:09:58.298Z,49.33
2022-10-22T13:12:26.925Z,59.13
2022-10-22T13:14:53.549Z,57.93
2022-10-22T13:17:37.323Z,59.33
2022-10-22T13:20:13.563Z,51.07
2022-10-22T13:22:42.008Z,54.73
2022-10-22T13:25:19.338Z,57.77
2022-10-22T13:27:51.402Z,52.10
2022-10-22T13:30:27.408Z,60.50
2022-10-22T13:32:58.253Z,60.63
2022-10-22T13:35:27.653Z,61.33
2022-10-22T13:37:54.912Z,60.53
2022-10-22T13:40:22.050Z,58.53
2022-10-22T13:42:48.824Z,50.50
2022-10-22T13:45:16.436Z,52.10
2022-10-22T13:47:46.812Z,55.27
2022-10-22T13:50:16.029Z,53.30
2022-10-22T13:52:46.339Z,55.87
2022-10-22T13:55:27.610Z,56.27
2022-10-22T13:57:56.598Z,65.90
2022-10-22T14:00:23.582Z,57.40
2022-10-22T14:02:52.874Z,56.80
2022-10-22T14:05:19.588Z,57.07
2022-10-22T14:07:46.425Z,57.03
2022-10-22T14:10:22.277Z,64.37
2022-10-22T14:12:52.407Z,60.13
2022-10-22T14:15:22.382Z,64.40
2022-10-22T14:17:52.804Z,65.53
2022-10-22T14:20:22.734Z,59.77
2022-10-22T14:22:50.544Z,62.63
2022-10-22T14:25:21.957Z,72.80
2022-10-22T14:27:48.752Z,71.13
2022-10-22T14:30:17.597Z,68.03
2022-10-22T14:32:44.377Z,70.03
2022-10-22T14:35:15.958Z,62.67
2022-10-22T14:37:42.874Z,73.37
2022-10-22T14:40:12.543Z,68.33
2022-10-22T14:42:43.026Z,71.23
2022-10-22T14:45:17.100Z,68.63
2022-10-22T14:47:43.770Z,72.83
2022-10-22T14:50:10.746Z,64.30
2022-10-22T14:52:37.415Z,71.87
2022-10-22T14:55:04.165Z,69.20
2022-10-22T14:57:31.343Z,69.57
2022-10-22T14:59:57.933Z,72.90
2022-10-22T15:02:24.602Z,74.77
2022-10-22T15:04:51.828Z,72.67
2022-10-22T15:07:19.084Z,85.07
2022-10-22T15:09:46.116Z,78.60
2022-10-22T15:12:12.827Z,78.97
2022-10-22T15:14:39.432Z,79.30
2022-10-22T15:17:06.046Z,86.07
2022-10-22T15:19:32.712Z,88.90
2022-10-22T15:21:59.227Z,87.73
2022-10-22T15:24:25.862Z,89.17
2022-10-22T15:26:53.990Z,90.33
2022-10-22T15:29:20.505Z,91.17
2022-10-22T15:31:49.561Z,96.30
2022-10-22T15:34:30.306Z,108.73
2022-10-22T15:36:59.354Z,92.27
2022-10-22T15:39:26.623Z,90.17
2022-10-22T15:41:53.784Z,100.17
2022-10-22T15:44:25.027Z,89.97
2022-10-22T15:46:51.926Z,91.90
2022-10-22T15:49:18.898Z,82.17
2022-10-22T15:51:45.392Z,93.50
2022-10-22T15:54:17.603Z,87.00
2022-10-22T15:56:44.679Z,92.53
2022-10-22T15:59:13.135Z,86.20
2022-10-22T16:01:40.155Z,90.10
2022-10-22T16:04:07.375Z,96.53
2022-10-22T16:06:46.115Z,85.37
2022-10-22T16:09:15.410Z,88.17
2022-10-22T16:11:42.155Z,98.17
2022-10-22T16:14:14.161Z,104.90
2022-10-22T16:16:44.917Z,106.93
2022-10-22T16:19:12.593Z,111.73
2022-10-22T16:21:39.123Z,107.40
2022-10-22T16:24:06.912Z,117.20
2022-10-22T16:26:33.643Z,121.60
2022-10-22T16:29:00.148Z,130.23
2022-10-22T16:31:26.727Z,139.80
2022-10-22T16:33:53.179Z,127.97
2022-10-22T16:36:21.037Z,131.73
2022-10-22T16:38:48.268Z,140.57
2022-10-22T16:41:22.961Z,132.20
2022-10-22T16:43:51.170Z,136.67
2022-10-22T16:46:21.774Z,132.57
2022-10-22T16:48:49.986Z,147.17
2022-10-22T16:51:18.666Z,140.30
2022-10-22T16:53:45.449Z,142.33
2022-10-22T16:56:13.853Z,156.53
2022-10-22T16:58:45.209Z,152.03
2022-10-22T17:01:13.384Z,141.43
2022-10-22T17:03:41.356Z,164.77
2022-10-22T17:06:08.382Z,169.87
2022-10-22T17:08:36.231Z,176.97
2022-10-22T17:11:22.808Z,163.90
2022-10-22T17:13:52.509Z,163.23
2022-10-22T17:16:21.193Z,188.63
2022-10-22T17:18:48.050Z,165.97
2022-10-22T17:21:15.361Z,196.53
2022-10-22T17:23:42.670Z,171.17
2022-10-22T17:26:14.324Z,175.07
2022-10-22T17:28:41.315Z,214.07
2022-10-22T17:31:23.448Z,177.23
2022-10-22T17:33:52.318Z,181.77
2022-10-22T17:36:19.316Z,215.63
2022-10-22T17:38:49.602Z,216.20
2022-10-22T17:41:18.953Z,201.10
2022-10-22T17:46:25.574Z,202.73
2022-10-22T17:48:53.302Z,209.50
2022-10-22T17:51:21.100Z,201.73
2022-10-22T17:53:47.964Z,194.67
2022-10-22T17:56:16.596Z,213.50
2022-10-22T17:58:43.515Z,208.57
2022-10-22T18:01:22.237Z,210.80
2022-10-22T18:03:48.970Z,209.00
2022-10-22T18:06:15.607Z,221.47
2022-10-22T18:08:42.194Z,219.33
2022-10-22T18:11:11.981Z,213.07
2022-10-22T18:13:38.670Z,219.20
2022-10-22T18:16:05.922Z,237.73
2022-10-22T18:18:33.971Z,226.97
2022-10-22T18:21:00.674Z,222.87
2022-10-22T18:23:27.718Z,184.63
2022-10-22T18:25:54.228Z,214.60
2022-10-22T18:28:20.975Z,202.53
2022-10-22T18:30:49.082Z,202.73
2022-10-22T18:33:17.291Z,201.97
2022-10-22T18:35:43.741Z,194.30
2022-10-22T18:38:13.241Z,196.67
2022-10-22T18:40:46.586Z,196.50
2022-10-22T18:43:13.130Z,190.93
2022-10-22T18:45:43.933Z,202.70
2022-10-22T18:48:10.987Z,200.43
2022-10-22T18:50:37.453Z,201.47
2022-10-22T18:53:03.986Z,198.33
2022-10-22T18:55:30.953Z,192.70
2022-10-22T18:57:57.578Z,200.83
2022-10-22T19:00:26.480Z,203.93
2022-10-22T19:02:56.046Z,196.87
2022-10-22T19:05:22.982Z,198.13
2022-10-22T19:07:50.379Z,202.10
2022-10-22T19:10:17.911Z,191.30
2022-10-22T19:12:44.590Z,196.03
2022-10-22T19:15:11.260Z,189.37
2022-10-22T19:17:37.819Z,190.40
2022-10-22T19:20:04.983Z,177.83
2022-10-22T19:22:32.978Z,164.57
2022-10-22T19:25:00.995Z,184.07
2022-10-22T19:27:27.598Z,178.43
2022-10-22T19:29:54.071Z,175.23
2022-10-22T19:32:21.038Z,175.60
2022-10-22T19:34:47.660Z,164.87
2022-10-22T19:37:14.153Z,175.13
2022-10-22T19:39:40.623Z,204.73
2022-10-22T19:42:07.177Z,168.93
2022-10-22T19:44:33.619Z,172.43
2022-10-22T19:47:00.083Z,187.47
2022-10-22T19:49:26.676Z,170.93
2022-10-22T19:51:53.152Z,174.87
2022-10-22T19:54:20.418Z,160.00
2022-10-22T19:56:47.737Z,164.23
2022-10-22T19:59:15.703Z,176.23
2022-10-22T20:01:42.144Z,149.27
2022-10-22T20:04:11.049Z,156.83
2022-10-22T20:06:37.828Z,172.03
2022-10-22T20:09:04.458Z,167.10
2022-10-22T20:11:31.146Z,153.27
2022-10-22T20:13:58.050Z,149.63
2022-10-22T20:16:28.587Z,133.90
2022-10-22T20:18:55.798Z,143.33
2022-10-22T20:21:22.309Z,130.70
2022-10-22T20:23:52.861Z,125.40
2022-10-22T20:26:19.832Z,136.00
2022-10-22T20:28:46.738Z,155.87
2022-10-22T20:31:16.419Z,148.57
2022-10-22T20:33:42.982Z,136.80
2022-10-22T20:36:14.244Z,139.47
2022-10-22T20:38:40.777Z,127.87
2022-10-22T20:41:16.765Z,147.83
2022-10-22T20:43:45.581Z,130.03
2022-10-22T20:46:17.741Z,131.30
2022-10-22T20:48:44.240Z,135.03
2022-10-22T20:51:11.048Z,124.57
2022-10-22T20:53:37.574Z,133.57
2022-10-22T20:56:04.189Z,126.83
2022-10-22T20:58:31.172Z,113.57
2022-10-22T21:00:58.247Z,112.33
2022-10-22T21:03:24.774Z,107.13
2022-10-22T21:05:51.346Z,113.70
2022-10-22T21:08:17.955Z,95.67
2022-10-22T21:10:49.197Z,107.43
2022-10-22T21:13:16.733Z,106.43
2022-10-22T21:15:43.726Z,106.77
2022-10-22T21:18:10.188Z,106.70
2022-10-22T21:20:38.871Z,98.07
2022-10-22T21:23:05.566Z,82.50
2022-10-22T21:25:32.474Z,90.20
2022-10-22T21:27:58.902Z,91.30
2022-10-22T21:30:25.552Z,96.47
2022-10-22T21:32:52.089Z,94.93
2022-10-22T21:35:18.734Z,93.67
2022-10-22T21:37:45.200Z,94.90
2022-10-22T21:40:12.060Z,82.27
2022-10-22T21:42:38.567Z,87.40
2022-10-22T21:45:10.479Z,90.07
2022-10-22T21:47:39.961Z,109.20
2022-10-22T21:50:07.151Z,90.03
2022-10-22T21:52:33.716Z,95.90
2022-10-22T21:55:00.143Z,98.33
2022-10-22T21:57:26.706Z,100.37
2022-10-22T21:59:53.150Z,98.90
2022-10-22T22:04:54.791Z,100.10
2022-10-22T22:07:21.977Z,110.27
2022-10-22T22:09:51.953Z,111.37
2022-10-22T22:12:18.697Z,104.33
2022-10-22T22:14:45.190Z,102.67
2022-10-22T22:17:11.845Z,114.97
2022-10-22T22:19:38.908Z,100.23
2022-10-22T22:22:05.394Z,112.53
2022-10-22T22:24:32.269Z,120.87
2022-10-22T22:26:59.041Z,115.57
2022-10-22T22:29:25.579Z,106.13
2022-10-22T22:31:52.194Z,104.30
2022-10-22T22:34:18.771Z,111.80
2022-10-22T22:36:47.109Z,117.00
2022-10-22T22:39:18.965Z,112.63
2022-10-22T22:41:46.250Z,113.53
2022-10-22T22:44:13.111Z,103.67
2022-10-22T22:46:39.962Z,114.53
2022-10-22T22:49:06.480Z,102.13
2022-10-22T22:51:33.192Z,102.93
2022-10-22T22:54:00.559Z,109.20
2022-10-22T22:56:34.283Z,102.27
2022-10-22T22:59:01.052Z,103.57
2022-10-22T23:01:33.364Z,107.30
2022-10-22T23:04:02.233Z,100.17
2022-10-22T23:06:31.132Z,105.90
2022-10-22T23:08:58.132Z,96.70
2022-10-22T23:11:25.674Z,97.07
2022-10-22T23:13:55.500Z,106.50
2022-10-22T23:16:23.241Z,93.30
2022-10-22T23:18:50.598Z,88.93
2022-10-22T23:21:20.195Z,86.60
2022-10-22T23:23:49.083Z,92.47
2022-10-22T23:26:18.833Z,94.33
2022-10-22T23:28:45.353Z,88.47
2022-10-22T23:31:15.969Z,86.63
2022-10-22T23:33:42.968Z,90.97
2022-10-22T23:36:10.509Z,99.07
2022-10-22T23:38:39.162Z,94.47
2022-10-22T23:41:05.956Z,91.10
2022-10-22T23:43:36.060Z,109.83
2022-10-22T23:46:04.282Z,99.63
2022-10-22T23:48:31.447Z,87.97
2022-10-22T23:50:57.886Z,102.03
2022-10-22T23:53:24.306Z,97.93
2022-10-22T23:55:50.764Z,104.90
2022-10-22T23:58:17.352Z,103.00
